createdAt,value
2019-05-01T00:02:03.964Z,9.30
2019-05-01T00:06:16.462Z,9.30
2019-05-01T00:10:27.609Z,9.30
2019-05-01T00:14:39.069Z,9.40
2019-05-01T00:18:49.381Z,9.40
2019-05-01T00:22:59.693Z,9.40
2019-05-01T00:27:10.063Z,9.40
2019-05-01T00:31:21.906Z,9.40
2019-05-01T00:35:32.307Z,9.40
2019-05-01T00:39:42.665Z,9.30
2019-05-01T00:43:53.005Z,9.30
2019-05-01T00:48:03.307Z,9.40
2019-05-01T00:52:13.622Z,9.60
2019-05-01T00:56:31.055Z,9.70
2019-05-01T01:00:48.625Z,9.80
2019-05-01T01:04:59.749Z,9.80
2019-05-01T01:09:10.274Z,9.80
2019-05-01T01:13:20.588Z,9.90
2019-05-01T01:17:30.885Z,9.90
2019-05-01T01:21:41.263Z,9.90
2019-05-01T01:25:51.565Z,9.90
2019-05-01T01:30:01.931Z,9.90
2019-05-01T01:34:12.662Z,10.00
2019-05-01T01:38:22.979Z,10.00
2019-05-01T01:42:33.506Z,10.10
2019-05-01T01:46:48.660Z,10.10
2019-05-01T01:51:00.022Z,10.20
2019-05-01T01:55:10.384Z,10.30
2019-05-01T01:59:21.797Z,10.40
2019-05-01T02:03:33.873Z,10.50
2019-05-01T02:07:44.784Z,10.60
2019-05-01T02:11:55.964Z,10.70
2019-05-01T02:16:06.340Z,10.70
2019-05-01T02:20:16.699Z,10.80
2019-05-01T02:24:26.999Z,10.90
2019-05-01T02:28:44.577Z,11.00
2019-05-01T02:32:56.206Z,11.00
2019-05-01T02:37:09.107Z,11.10
2019-05-01T02:41:20.554Z,11.10
2019-05-01T02:45:31.006Z,11.20
2019-05-01T02:49:47.672Z,11.20
2019-05-01T02:54:00.658Z,11.20
2019-05-01T02:58:11.714Z,11.20
2019-05-01T03:02:24.724Z,11.30
2019-05-01T03:06:35.476Z,11.30
2019-05-01T03:10:45.846Z,11.20
2019-05-01T03:14:59.315Z,11.20
2019-05-01T03:19:24.913Z,11.10
2019-05-01T03:23:37.247Z,11.10
2019-05-01T03:27:48.313Z,11.10
2019-05-01T03:32:16.784Z,11.10
2019-05-01T03:36:12.157Z,11.10
2019-05-01T03:40:22.788Z,11.10
2019-05-01T03:44:34.049Z,11.10
2019-05-01T03:48:44.356Z,11.00
2019-05-01T03:52:54.724Z,10.90
2019-05-01T03:57:05.171Z,10.80
2019-05-01T04:01:23.210Z,10.80
2019-05-01T04:05:33.771Z,10.80
2019-05-01T04:09:44.159Z,10.80
2019-05-01T04:13:54.541Z,10.70
2019-05-01T04:18:07.825Z,10.70
2019-05-01T04:22:18.147Z,10.70
2019-05-01T04:26:28.509Z,10.60
2019-05-01T04:30:55.077Z,10.60
2019-05-01T04:35:19.650Z,10.70
2019-05-01T04:39:30.173Z,10.70
2019-05-01T04:43:40.670Z,10.70
2019-05-01T04:47:51.744Z,10.70
2019-05-01T04:52:02.718Z,10.70
2019-05-01T04:56:13.197Z,10.70
2019-05-01T05:00:23.637Z,10.70
2019-05-01T05:04:34.168Z,10.70
2019-05-01T05:08:44.638Z,10.80
2019-05-01T05:12:56.929Z,10.80
2019-05-01T05:17:18.003Z,10.80
2019-05-01T05:21:28.636Z,10.80
2019-05-01T05:25:39.011Z,10.80
2019-05-01T05:29:49.872Z,10.90
2019-05-01T05:34:01.220Z,11.10
2019-05-01T05:38:30.641Z,11.10
2019-05-01T05:42:42.956Z,11.20
2019-05-01T05:46:54.055Z,11.20
2019-05-01T05:51:29.434Z,11.20
2019-05-01T05:55:42.728Z,11.30
2019-05-01T06:00:06.893Z,11.40
2019-05-01T06:04:38.473Z,11.50
2019-05-01T06:08:51.749Z,11.60
2019-05-01T06:13:21.943Z,11.80
2019-05-01T06:17:32.573Z,12.00
2019-05-01T06:22:04.846Z,12.10
2019-05-01T06:26:32.223Z,12.50
2019-05-01T06:30:41.998Z,13.20
2019-05-01T06:34:51.635Z,13.60
2019-05-01T06:39:06.749Z,13.80
2019-05-01T06:43:36.629Z,14.00
2019-05-01T06:47:48.585Z,13.90
2019-05-01T06:52:01.970Z,13.70
2019-05-01T06:56:13.088Z,13.60
2019-05-01T07:00:23.461Z,13.60
2019-05-01T07:04:37.813Z,13.80
2019-05-01T07:08:46.204Z,14.30
2019-05-01T07:12:59.844Z,14.30
2019-05-01T07:17:13.585Z,14.30
2019-05-01T07:21:27.049Z,14.70
2019-05-01T07:25:39.406Z,14.90
2019-05-01T07:29:48.760Z,14.60
2019-05-01T07:33:59.141Z,14.30
2019-05-01T07:38:09.635Z,14.20
2019-05-01T07:42:28.196Z,14.20
2019-05-01T07:46:40.049Z,14.50
2019-05-01T07:50:50.604Z,14.90
2019-05-01T07:55:01.033Z,14.90
2019-05-01T07:59:12.211Z,14.60
2019-05-01T08:03:22.513Z,14.40
2019-05-01T08:07:33.641Z,14.50
2019-05-01T08:11:45.493Z,14.40
2019-05-01T08:15:55.859Z,14.50
2019-05-01T08:20:16.946Z,14.50
2019-05-01T08:24:27.327Z,14.50
2019-05-01T08:28:42.735Z,14.50
2019-05-01T08:33:03.752Z,14.50
2019-05-01T08:37:17.869Z,15.00
2019-05-01T08:41:26.939Z,15.50
2019-05-01T08:45:51.772Z,15.40
2019-05-01T08:50:06.269Z,14.70
2019-05-01T08:54:16.692Z,14.30
2019-05-01T08:58:27.078Z,14.20
2019-05-01T09:02:41.753Z,14.40
2019-05-01T09:06:49.233Z,14.60
2019-05-01T09:11:00.488Z,14.70
2019-05-01T09:15:12.799Z,15.00
2019-05-01T09:19:26.774Z,15.10
2019-05-01T09:23:37.149Z,14.90
2019-05-01T09:28:04.117Z,15.10
2019-05-01T09:32:12.473Z,15.50
2019-05-01T09:36:22.678Z,15.70
2019-05-01T09:40:33.280Z,15.60
2019-05-01T09:44:43.647Z,15.90
2019-05-01T09:48:54.514Z,16.50
2019-05-01T09:53:09.164Z,17.30
2019-05-01T09:57:19.473Z,18.30
2019-05-01T10:01:32.824Z,18.70
2019-05-01T10:05:42.880Z,18.50
2019-05-01T10:09:53.981Z,18.10
2019-05-01T10:14:06.735Z,18.80
2019-05-01T10:18:18.577Z,19.50
2019-05-01T10:22:32.891Z,19.70
2019-05-01T10:26:45.504Z,19.50
2019-05-01T10:31:00.925Z,19.60
2019-05-01T10:35:19.294Z,19.60
2019-05-01T10:39:30.128Z,19.40
2019-05-01T10:43:40.296Z,19.20
2019-05-01T10:47:52.807Z,19.30
2019-05-01T10:52:13.674Z,19.40
2019-05-01T10:56:19.170Z,19.70
2019-05-01T11:00:31.982Z,19.40
2019-05-01T11:04:44.959Z,19.30
2019-05-01T11:08:55.273Z,19.20
2019-05-01T11:13:07.742Z,19.40
2019-05-01T11:17:17.869Z,19.60
2019-05-01T11:21:28.287Z,19.50
2019-05-01T11:25:40.230Z,19.30
2019-05-01T11:29:50.548Z,19.40
2019-05-01T11:34:08.533Z,19.40
2019-05-01T11:38:38.791Z,19.60
2019-05-01T11:42:49.205Z,19.60
2019-05-01T11:46:59.878Z,19.50
2019-05-01T11:51:10.266Z,20.10
2019-05-01T11:55:20.669Z,20.60
2019-05-01T11:59:32.969Z,20.80
2019-05-01T12:03:44.472Z,20.90
2019-05-01T12:07:54.772Z,20.60
2019-05-01T12:12:15.503Z,20.10
2019-05-01T12:16:43.825Z,20.40
2019-05-01T12:20:54.131Z,20.40
2019-05-01T12:25:05.344Z,20.50
2019-05-01T12:29:15.869Z,20.20
2019-05-01T12:33:26.187Z,20.20
2019-05-01T12:37:41.498Z,20.30
2019-05-01T12:41:59.520Z,20.50
2019-05-01T12:46:11.804Z,20.30
2019-05-01T12:50:22.732Z,20.00
2019-05-01T12:54:40.171Z,20.00
2019-05-01T12:58:50.837Z,20.20
2019-05-01T13:03:01.179Z,20.20
2019-05-01T13:07:11.988Z,20.40
2019-05-01T13:11:22.427Z,20.30
2019-05-01T13:15:32.830Z,19.70
2019-05-01T13:19:43.132Z,19.70
2019-05-01T13:23:54.234Z,20.00
2019-05-01T13:28:22.704Z,20.20
2019-05-01T13:32:37.865Z,20.20
2019-05-01T13:36:48.064Z,20.20
2019-05-01T13:40:59.041Z,20.10
2019-05-01T13:45:10.691Z,19.60
2019-05-01T13:49:21.093Z,19.50
2019-05-01T13:53:31.422Z,19.40
2019-05-01T13:57:41.715Z,19.60
2019-05-01T14:01:52.140Z,19.70
2019-05-01T14:06:02.475Z,19.60
2019-05-01T14:10:13.236Z,19.40
2019-05-01T14:14:23.604Z,19.40
2019-05-01T14:18:33.904Z,19.40
2019-05-01T14:22:48.421Z,19.60
2019-05-01T14:26:58.740Z,19.90
2019-05-01T14:31:09.519Z,20.00
2019-05-01T14:35:21.167Z,20.00
2019-05-01T14:39:31.465Z,20.00
2019-05-01T14:43:41.803Z,20.00
2019-05-01T14:47:52.111Z,20.00
2019-05-01T14:52:02.579Z,19.90
2019-05-01T14:56:12.894Z,19.90
2019-05-01T15:00:23.423Z,20.00
2019-05-01T15:04:33.769Z,19.80
2019-05-01T15:08:44.090Z,19.90
2019-05-01T15:12:56.043Z,19.70
2019-05-01T15:17:13.737Z,19.70
2019-05-01T15:21:24.056Z,19.70
2019-05-01T15:25:34.360Z,19.60
2019-05-01T15:29:44.770Z,19.50
2019-05-01T15:33:55.171Z,19.50
2019-05-01T15:38:05.581Z,19.50
2019-05-01T15:42:29.613Z,19.50
2019-05-01T15:46:40.592Z,19.60
2019-05-01T15:50:51.114Z,19.70
2019-05-01T15:55:01.430Z,19.70
2019-05-01T15:59:12.460Z,19.60
2019-05-01T16:03:23.674Z,19.60
2019-05-01T16:07:33.941Z,19.70
2019-05-01T16:11:59.980Z,19.60
2019-05-01T16:16:10.352Z,19.60
2019-05-01T16:20:20.755Z,19.50
2019-05-01T16:24:31.131Z,19.40
2019-05-01T16:28:41.561Z,19.40
2019-05-01T16:32:51.878Z,19.30
2019-05-01T16:37:02.189Z,19.30
2019-05-01T16:41:12.817Z,19.90
2019-05-01T16:45:23.278Z,19.50
2019-05-01T16:49:33.577Z,19.10
2019-05-01T16:53:43.893Z,18.90
2019-05-01T16:57:54.467Z,18.70
2019-05-01T17:02:12.717Z,18.70
2019-05-01T17:06:39.672Z,18.60
2019-05-01T17:10:53.484Z,18.50
2019-05-01T17:15:04.006Z,18.40
2019-05-01T17:19:14.384Z,18.20
2019-05-01T17:23:24.602Z,18.20
2019-05-01T17:27:34.905Z,18.10
2019-05-01T17:31:45.534Z,18.00
2019-05-01T17:35:55.849Z,18.00
2019-05-01T17:40:06.511Z,17.90
2019-05-01T17:44:20.230Z,17.80
2019-05-01T17:48:33.709Z,17.70
2019-05-01T17:52:42.904Z,17.60
2019-05-01T17:56:55.724Z,17.50
2019-05-01T18:01:07.883Z,17.30
2019-05-01T18:05:20.016Z,17.20
2019-05-01T18:09:30.306Z,17.00
2019-05-01T18:13:40.661Z,16.90
2019-05-01T18:17:51.458Z,16.80
2019-05-01T18:22:04.978Z,16.80
2019-05-01T18:26:16.935Z,16.70
2019-05-01T18:30:28.925Z,16.50
2019-05-01T18:34:39.500Z,16.40
2019-05-01T18:39:15.574Z,16.30
2019-05-01T18:43:15.461Z,16.20
2019-05-01T18:47:26.208Z,16.20
2019-05-01T18:51:40.730Z,16.30
2019-05-01T18:55:48.696Z,16.30
2019-05-01T18:59:59.209Z,16.10
2019-05-01T19:04:09.760Z,15.90
2019-05-01T19:08:20.248Z,15.70
2019-05-01T19:12:31.345Z,15.60
2019-05-01T19:16:45.177Z,15.50
2019-05-01T19:20:59.845Z,15.30
2019-05-01T19:25:11.019Z,15.20
2019-05-01T19:29:19.341Z,15.20
2019-05-01T19:33:29.690Z,15.10
2019-05-01T19:37:40.009Z,15.00
2019-05-01T19:41:51.101Z,14.90
2019-05-01T19:46:02.479Z,15.00
2019-05-01T19:50:13.921Z,15.00
2019-05-01T19:54:27.906Z,14.90
2019-05-01T19:58:36.678Z,14.70
2019-05-01T20:02:46.968Z,14.60
2019-05-01T20:06:57.614Z,14.50
2019-05-01T20:11:09.655Z,14.40
2019-05-01T20:15:25.200Z,14.30
2019-05-01T20:19:33.793Z,14.30
2019-05-01T20:23:44.417Z,14.30
2019-05-01T20:27:57.362Z,14.30
2019-05-01T20:32:07.803Z,14.30
2019-05-01T20:36:18.072Z,14.30
2019-05-01T20:40:28.384Z,14.10
2019-05-01T20:44:39.489Z,14.00
2019-05-01T20:48:49.885Z,13.80
2019-05-01T20:53:00.204Z,13.80
2019-05-01T20:57:13.568Z,13.70
2019-05-01T21:01:28.141Z,13.70
2019-05-01T21:05:41.245Z,13.70
2019-05-01T21:09:57.831Z,13.70
2019-05-01T21:14:19.874Z,13.60
2019-05-01T21:18:20.993Z,13.50
2019-05-01T21:22:29.876Z,13.50
2019-05-01T21:26:40.173Z,13.60
2019-05-01T21:30:50.387Z,13.50
2019-05-01T21:35:01.478Z,13.50
2019-05-01T21:39:15.039Z,13.40
2019-05-01T21:43:27.842Z,13.30
2019-05-01T21:47:37.666Z,13.20
2019-05-01T21:51:48.085Z,13.10
2019-05-01T21:56:02.201Z,13.10
2019-05-01T22:00:11.066Z,13.20
2019-05-01T22:04:22.318Z,13.20
2019-05-01T22:08:34.517Z,13.20
2019-05-01T22:12:49.004Z,13.20
2019-05-01T22:16:58.407Z,13.20
2019-05-01T22:21:10.372Z,13.20
2019-05-01T22:25:25.122Z,13.20
2019-05-01T22:29:43.189Z,13.30
2019-05-01T22:33:55.244Z,13.30
2019-05-01T22:38:07.115Z,13.20
2019-05-01T22:42:17.706Z,13.20
2019-05-01T22:46:33.852Z,13.10
2019-05-01T22:50:41.626Z,13.10
2019-05-01T22:54:51.928Z,13.00
2019-05-01T22:59:03.120Z,12.90
2019-05-01T23:03:15.388Z,12.90
2019-05-01T23:07:26.224Z,12.80
2019-05-01T23:11:38.422Z,12.80
2019-05-01T23:15:51.493Z,12.70
2019-05-01T23:20:04.099Z,12.70
2019-05-01T23:24:13.534Z,12.60
2019-05-01T23:28:23.840Z,12.50
2019-05-01T23:32:34.140Z,12.50
2019-05-01T23:36:44.472Z,12.40
2019-05-01T23:40:54.909Z,12.30
2019-05-01T23:45:07.904Z,12.30
2019-05-01T23:49:18.408Z,12.30
2019-05-01T23:53:29.061Z,12.20
2019-05-01T23:57:39.476Z,12.20
